createdAt,value
2023-02-19T00:07:32.860Z,54.50
2023-02-19T00:10:21.425Z,66.75
2023-02-19T00:13:35.604Z,59.65
2023-02-19T00:18:43.836Z,47.88
2023-02-19T00:22:45.339Z,65.20
2023-02-19T00:25:31.288Z,53.72
2023-02-19T00:31:07.701Z,56.20
2023-02-19T00:33:56.558Z,55.13
2023-02-19T00:37:08.416Z,63.60
2023-02-19T00:39:53.996Z,53.60
2023-02-19T00:42:39.814Z,59.13
2023-02-19T00:45:26.486Z,48.60
2023-02-19T00:50:57.911Z,52.70
2023-02-19T01:30:16.301Z,41.05
2023-02-19T01:35:51.339Z,42.00
2023-02-19T01:53:19.296Z,38.83
2023-02-19T01:56:06.810Z,43.63
2023-02-19T02:04:14.470Z,26.92
2023-02-19T02:07:02.563Z,27.08
2023-02-19T02:10:06.596Z,30.05
2023-02-19T02:12:56.456Z,38.17
2023-02-19T02:15:51.889Z,38.15
2023-02-19T02:18:48.403Z,34.03
2023-02-19T02:21:46.174Z,34.45
2023-02-19T02:25:15.500Z,35.38
2023-02-19T02:28:15.792Z,31.35
2023-02-19T02:31:07.138Z,32.30
2023-02-19T02:33:59.634Z,32.75
2023-02-19T02:36:49.895Z,31.50
2023-02-19T02:39:38.477Z,28.38
2023-02-19T02:42:27.187Z,31.70
2023-02-19T02:45:37.648Z,36.53
2023-02-19T02:48:37.018Z,37.55
2023-02-19T02:51:26.359Z,24.33
2023-02-19T02:54:42.579Z,39.95
2023-02-19T02:57:31.223Z,39.33
2023-02-19T03:00:17.105Z,33.72
2023-02-19T03:03:03.833Z,23.77
2023-02-19T03:05:55.750Z,33.67
2023-02-19T03:08:47.338Z,33.75
2023-02-19T03:11:53.370Z,33.00
2023-02-19T03:15:02.613Z,23.42
2023-02-19T03:18:10.868Z,32.20
2023-02-19T03:20:59.221Z,23.48
2023-02-19T03:24:05.256Z,28.30
2023-02-19T03:26:54.012Z,17.92
2023-02-19T03:29:43.573Z,26.93
2023-02-19T03:32:33.991Z,29.05
2023-02-19T03:35:23.134Z,24.75
2023-02-19T03:38:18.541Z,23.00
2023-02-19T03:41:10.789Z,23.13
2023-02-19T03:44:07.740Z,24.95
2023-02-19T03:46:58.651Z,21.15
2023-02-19T03:49:49.177Z,22.23
2023-02-19T03:52:42.036Z,25.90
2023-02-19T03:55:37.226Z,19.47
2023-02-19T03:58:31.993Z,21.25
2023-02-19T04:01:22.283Z,22.42
2023-02-19T04:04:15.645Z,19.03
2023-02-19T04:07:01.218Z,23.38
2023-02-19T04:09:51.961Z,19.30
2023-02-19T04:12:44.269Z,26.23
2023-02-19T04:15:33.547Z,18.80
2023-02-19T04:18:22.716Z,20.58
2023-02-19T04:21:10.741Z,21.83
2023-02-19T04:23:59.398Z,23.13
2023-02-19T04:26:46.004Z,20.10
2023-02-19T04:29:33.234Z,16.95
2023-02-19T04:32:18.956Z,17.90
2023-02-19T04:35:04.588Z,19.02
2023-02-19T04:37:50.044Z,22.30
2023-02-19T04:40:35.881Z,24.42
2023-02-19T04:43:21.768Z,20.40
2023-02-19T04:46:08.723Z,15.43
2023-02-19T04:48:54.339Z,22.00
2023-02-19T04:51:40.504Z,25.70
2023-02-19T04:54:26.488Z,21.80
2023-02-19T04:57:12.257Z,23.40
2023-02-19T04:59:58.086Z,23.33
2023-02-19T05:02:45.017Z,27.75
2023-02-19T05:05:30.360Z,25.65
2023-02-19T05:08:15.972Z,22.63
2023-02-19T05:11:03.895Z,20.48
2023-02-19T05:13:49.884Z,23.17
2023-02-19T05:16:35.651Z,18.83
2023-02-19T05:19:22.789Z,21.05
2023-02-19T05:22:08.491Z,28.08
2023-02-19T05:24:54.027Z,27.83
2023-02-19T05:27:40.301Z,23.92
2023-02-19T05:30:26.039Z,24.15
2023-02-19T05:33:11.784Z,24.23
2023-02-19T05:35:58.531Z,25.48
2023-02-19T05:38:44.113Z,24.33
2023-02-19T05:41:30.574Z,20.13
2023-02-19T05:44:16.227Z,18.58
2023-02-19T05:47:01.776Z,24.17
2023-02-19T05:49:47.476Z,18.13
2023-02-19T05:52:34.871Z,17.15
2023-02-19T05:55:20.372Z,17.00
2023-02-19T05:58:05.905Z,21.52
2023-02-19T06:00:51.874Z,18.60
2023-02-19T06:03:37.896Z,19.15
2023-02-19T06:06:23.918Z,15.90
2023-02-19T06:09:11.453Z,15.23
2023-02-19T06:11:57.401Z,15.38
2023-02-19T06:14:42.952Z,17.77
2023-02-19T06:17:28.562Z,24.48
2023-02-19T06:20:14.553Z,19.25
2023-02-19T06:23:00.161Z,14.32
2023-02-19T06:25:47.249Z,15.50
2023-02-19T06:28:32.664Z,16.85
2023-02-19T06:31:20.021Z,17.35
2023-02-19T06:34:05.935Z,18.23
2023-02-19T06:36:51.752Z,15.88
2023-02-19T06:39:37.592Z,12.90
2023-02-19T06:42:24.716Z,14.82
2023-02-19T06:45:10.170Z,13.10
2023-02-19T06:47:55.953Z,15.55
2023-02-19T06:50:41.395Z,22.17
2023-02-19T06:53:26.852Z,18.55
2023-02-19T06:56:25.093Z,14.90
2023-02-19T06:59:13.919Z,15.02
2023-02-19T07:01:59.870Z,13.30
2023-02-19T07:04:45.677Z,16.15
2023-02-19T07:07:31.571Z,15.75
2023-02-19T07:10:18.039Z,15.10
2023-02-19T07:13:03.728Z,14.85
2023-02-19T07:15:52.263Z,12.65
2023-02-19T07:18:38.320Z,12.30
2023-02-19T07:21:24.569Z,17.05
2023-02-19T07:24:10.779Z,17.80
2023-02-19T07:26:56.320Z,13.20
2023-02-19T07:29:42.372Z,18.35
2023-02-19T07:32:29.538Z,17.15
2023-02-19T07:35:15.057Z,21.38
2023-02-19T07:38:00.841Z,18.33
2023-02-19T07:40:52.025Z,18.30
2023-02-19T07:43:39.242Z,16.85
2023-02-19T07:46:25.514Z,23.85
2023-02-19T07:49:12.644Z,30.27
2023-02-19T07:51:58.531Z,17.15
2023-02-19T07:54:44.022Z,21.88
2023-02-19T07:57:31.213Z,19.98
2023-02-19T08:00:19.099Z,18.13
2023-02-19T08:03:04.909Z,25.13
2023-02-19T08:05:53.815Z,16.13
2023-02-19T08:08:40.100Z,15.43
2023-02-19T08:11:44.602Z,19.95
2023-02-19T08:14:30.423Z,18.98
2023-02-19T08:17:16.155Z,18.13
2023-02-19T08:20:02.046Z,19.20
2023-02-19T08:22:49.258Z,20.95
2023-02-19T08:25:34.796Z,20.80
2023-02-19T08:28:20.681Z,15.95
2023-02-19T08:31:08.324Z,16.50
2023-02-19T08:33:53.816Z,18.63
2023-02-19T08:36:39.796Z,14.95
2023-02-19T08:39:27.158Z,20.20
2023-02-19T08:42:13.178Z,19.27
2023-02-19T08:44:59.160Z,15.43
2023-02-19T08:47:45.152Z,18.75
2023-02-19T08:50:31.281Z,17.73
2023-02-19T08:53:17.187Z,14.73
2023-02-19T08:56:06.722Z,19.05
2023-02-19T08:58:52.410Z,15.55
2023-02-19T09:01:37.951Z,13.15
2023-02-19T09:04:23.906Z,12.95
2023-02-19T09:07:12.314Z,14.23
2023-02-19T09:09:58.679Z,8.82
2023-02-19T09:12:47.304Z,16.88
2023-02-19T09:15:33.650Z,12.75
2023-02-19T09:18:19.651Z,16.83
2023-02-19T09:21:06.475Z,15.77
2023-02-19T09:23:52.250Z,13.48
2023-02-19T09:26:38.782Z,17.85
2023-02-19T10:08:34.780Z,17.13
2023-02-19T10:11:20.453Z,14.00
2023-02-19T10:14:12.778Z,12.20
2023-02-19T10:17:01.168Z,12.60
2023-02-19T10:19:48.366Z,15.30
2023-02-19T10:22:38.006Z,16.33
2023-02-19T10:25:23.617Z,19.55
2023-02-19T10:28:14.271Z,14.85
2023-02-19T10:31:01.767Z,12.80
2023-02-19T10:33:52.732Z,6.97
2023-02-19T10:36:41.810Z,6.88
2023-02-19T10:42:23.355Z,11.18
2023-02-19T10:45:18.792Z,7.88
2023-02-19T10:48:06.026Z,8.05
2023-02-19T10:50:58.045Z,9.68
2023-02-19T10:53:47.707Z,11.48
2023-02-19T10:56:34.021Z,6.32
2023-02-19T10:59:25.385Z,4.45
2023-02-19T11:02:18.057Z,7.50
2023-02-19T11:05:21.862Z,8.98
2023-02-19T11:08:22.338Z,8.70
2023-02-19T11:11:09.708Z,9.43
2023-02-19T11:13:57.784Z,7.13
2023-02-19T11:16:46.428Z,7.05
2023-02-19T11:19:36.850Z,10.05
2023-02-19T11:22:31.490Z,11.55
2023-02-19T11:25:25.585Z,7.57
2023-02-19T11:28:30.420Z,6.22
2023-02-19T11:31:24.572Z,4.70
2023-02-19T11:34:29.821Z,5.75
2023-02-19T11:37:17.329Z,4.20
2023-02-19T11:40:09.571Z,11.48
2023-02-19T11:43:01.095Z,6.10
2023-02-19T11:45:55.173Z,3.45
2023-02-19T11:48:55.994Z,5.35
2023-02-19T11:52:00.020Z,5.00
2023-02-19T11:54:52.688Z,9.98
2023-02-19T11:57:44.140Z,8.75
2023-02-19T12:00:31.142Z,5.55
2023-02-19T12:03:44.160Z,6.38
2023-02-19T12:06:37.117Z,5.28
2023-02-19T12:09:40.966Z,3.58
2023-02-19T12:12:39.630Z,9.18
2023-02-19T12:16:10.816Z,2.55
2023-02-19T12:19:15.047Z,4.95
2023-02-19T12:22:16.963Z,2.40
2023-02-19T12:25:25.636Z,4.60
2023-02-19T12:28:30.088Z,7.05
2023-02-19T12:31:45.165Z,3.05
2023-02-19T12:35:04.348Z,5.70
2023-02-19T12:37:58.958Z,2.72
2023-02-19T12:41:04.172Z,4.18
2023-02-19T12:43:54.496Z,3.05
2023-02-19T12:46:44.911Z,6.38
2023-02-19T12:49:34.831Z,3.47
2023-02-19T12:52:25.795Z,3.53
2023-02-19T12:55:21.265Z,4.10
2023-02-19T12:58:13.844Z,3.10
2023-02-19T13:01:00.259Z,7.25
2023-02-19T13:03:52.431Z,12.70
2023-02-19T13:06:43.385Z,5.47
2023-02-19T13:09:34.830Z,6.00
2023-02-19T13:12:24.482Z,5.22
2023-02-19T13:15:16.728Z,8.10
2023-02-19T13:18:05.533Z,9.35
2023-02-19T13:20:54.867Z,6.82
2023-02-19T13:24:03.136Z,6.22
2023-02-19T13:27:10.829Z,4.50
2023-02-19T13:30:22.700Z,7.57
2023-02-19T13:33:22.999Z,3.47
2023-02-19T13:36:15.655Z,2.40
2023-02-19T13:39:05.283Z,3.95
2023-02-19T13:41:55.945Z,3.40
2023-02-19T13:44:47.835Z,4.40
2023-02-19T13:47:49.018Z,4.40
2023-02-19T13:50:35.081Z,6.63
2023-02-19T13:53:53.863Z,5.85
2023-02-19T13:56:40.700Z,9.30
2023-02-19T13:59:36.192Z,6.43
2023-02-19T14:02:30.668Z,4.70
2023-02-19T14:05:54.868Z,7.63
2023-02-19T14:08:51.038Z,5.38
2023-02-19T14:12:02.522Z,5.57
2023-02-19T14:17:39.857Z,6.47
2023-02-19T14:23:29.009Z,3.78
2023-02-19T14:26:17.545Z,4.30
2023-02-19T14:29:06.669Z,2.90
2023-02-19T14:31:52.753Z,2.83
2023-02-19T14:34:39.351Z,5.00
2023-02-19T14:37:26.098Z,6.25
2023-02-19T14:40:19.817Z,5.07
2023-02-19T14:43:07.248Z,6.05
2023-02-19T14:45:56.997Z,5.13
2023-02-19T14:48:45.875Z,5.35
2023-02-19T14:51:34.982Z,3.95
2023-02-19T14:54:31.911Z,4.75
2023-02-19T14:57:21.475Z,5.78
2023-02-19T15:00:24.048Z,3.17
2023-02-19T15:03:28.968Z,5.13
2023-02-19T15:06:19.473Z,1.60
2023-02-19T15:09:07.286Z,2.03
2023-02-19T15:11:54.788Z,5.60
2023-02-19T15:14:40.659Z,3.72
2023-02-19T15:17:29.735Z,2.65
2023-02-19T15:20:18.800Z,4.38
2023-02-19T15:23:07.423Z,2.65
2023-02-19T15:25:53.599Z,2.72
2023-02-19T15:28:39.334Z,2.00
2023-02-19T15:31:25.005Z,3.75
2023-02-19T15:34:17.713Z,4.57
2023-02-19T15:37:06.339Z,4.50
2023-02-19T15:39:53.258Z,3.95
2023-02-19T15:42:39.443Z,4.55
2023-02-19T15:45:28.903Z,3.97
2023-02-19T15:48:16.728Z,3.45
2023-02-19T15:51:10.984Z,2.42
2023-02-19T15:54:04.182Z,5.25
2023-02-19T15:56:50.674Z,3.20
2023-02-19T15:59:40.166Z,2.95
2023-02-19T16:02:27.767Z,7.88
2023-02-19T16:05:17.964Z,4.55
2023-02-19T16:08:18.200Z,15.63
2023-02-19T16:11:05.861Z,8.38
2023-02-19T16:13:52.005Z,4.57
2023-02-19T16:16:40.630Z,4.97
2023-02-19T16:19:28.600Z,3.63
2023-02-19T16:22:19.126Z,5.93
2023-02-19T16:25:08.148Z,4.28
2023-02-19T16:27:54.306Z,3.38
2023-02-19T16:30:41.299Z,4.82
2023-02-19T16:33:39.181Z,5.38
2023-02-19T16:36:35.575Z,10.10
2023-02-19T16:39:23.245Z,4.60
2023-02-19T16:42:14.820Z,3.42
2023-02-19T16:47:51.072Z,6.40
2023-02-19T16:53:28.810Z,7.90
2023-02-19T16:56:18.486Z,6.60
2023-02-19T16:59:07.576Z,5.35
2023-02-19T17:01:53.434Z,3.60
2023-02-19T17:04:39.025Z,5.47
2023-02-19T17:07:26.047Z,4.20
2023-02-19T17:10:16.096Z,5.47
2023-02-19T17:13:01.875Z,4.07
2023-02-19T17:15:49.241Z,9.02
2023-02-19T17:18:34.987Z,8.32
2023-02-19T17:21:22.966Z,6.35
2023-02-19T17:24:08.689Z,8.02
2023-02-19T17:26:54.535Z,8.00
2023-02-19T17:29:40.696Z,6.75
2023-02-19T17:32:28.092Z,7.20
2023-02-19T17:35:14.192Z,6.35
2023-02-19T17:37:59.780Z,9.00
2023-02-19T17:40:45.743Z,6.07
2023-02-19T17:43:31.537Z,4.85
2023-02-19T17:46:17.763Z,5.25
2023-02-19T17:49:05.046Z,5.13
2023-02-19T17:51:51.224Z,6.82
2023-02-19T17:54:36.758Z,5.40
2023-02-19T17:57:22.675Z,5.72
2023-02-19T18:00:11.014Z,5.13
2023-02-19T18:02:59.770Z,6.35
2023-02-19T18:05:47.038Z,3.45
2023-02-19T18:08:32.854Z,4.05
2023-02-19T18:11:20.047Z,3.00
2023-02-19T18:14:05.712Z,3.95
2023-02-19T18:16:51.832Z,3.33
2023-02-19T18:19:37.750Z,3.42
2023-02-19T18:22:25.110Z,2.65
2023-02-19T18:25:11.628Z,3.22
2023-02-19T18:27:58.272Z,3.63
2023-02-19T18:30:45.072Z,2.50
2023-02-19T18:33:31.482Z,3.03
2023-02-19T18:36:17.125Z,2.15
2023-02-19T18:39:04.658Z,2.38
2023-02-19T18:41:51.739Z,2.72
2023-02-19T18:44:38.225Z,2.10
2023-02-19T18:47:27.660Z,6.45
2023-02-19T18:50:14.768Z,3.30
2023-02-19T18:53:01.038Z,3.35
2023-02-19T18:55:47.962Z,6.63
2023-02-19T18:58:33.558Z,5.53
2023-02-19T19:01:19.729Z,6.18
2023-02-19T19:04:05.773Z,4.20
2023-02-19T19:06:51.838Z,4.35
2023-02-19T19:09:37.751Z,3.58
2023-02-19T19:12:25.195Z,3.72
2023-02-19T19:15:11.506Z,4.90
2023-02-19T19:17:57.310Z,4.60
2023-02-19T19:20:43.232Z,2.75
2023-02-19T19:23:29.194Z,3.33
2023-02-19T19:26:15.948Z,3.30
2023-02-19T19:29:03.391Z,6.70
2023-02-19T19:31:50.342Z,3.17
2023-02-19T19:34:36.108Z,4.03
2023-02-19T19:37:22.185Z,3.78
2023-02-19T19:40:09.571Z,3.20
2023-02-19T19:42:55.599Z,4.57
2023-02-19T19:45:42.923Z,2.65
2023-02-19T19:48:28.638Z,4.97
2023-02-19T19:51:14.440Z,3.35
2023-02-19T19:54:01.967Z,2.03
2023-02-19T19:56:49.799Z,3.50
2023-02-19T19:59:36.982Z,2.20
2023-02-19T20:02:24.367Z,2.88
2023-02-19T20:05:10.270Z,3.63
2023-02-19T20:07:56.198Z,3.72
2023-02-19T20:10:43.934Z,2.70
2023-02-19T20:13:32.646Z,3.00
2023-02-19T20:16:24.580Z,3.38
2023-02-19T20:19:12.183Z,4.43
2023-02-19T20:21:57.725Z,7.57
2023-02-19T20:24:43.525Z,7.22
2023-02-19T20:27:29.486Z,8.35
2023-02-19T20:30:17.057Z,9.05
2023-02-19T20:33:02.955Z,7.43
2023-02-19T20:35:50.301Z,9.15
2023-02-19T20:38:36.093Z,7.72
2023-02-19T20:41:22.202Z,9.65
2023-02-19T20:44:08.089Z,8.05
2023-02-19T20:46:54.231Z,9.25
2023-02-19T20:49:44.702Z,7.53
2023-02-19T20:52:32.071Z,7.63
2023-02-19T20:55:18.115Z,9.07
2023-02-19T20:58:03.960Z,8.95
2023-02-19T21:00:49.933Z,7.38
2023-02-19T21:03:35.686Z,8.38
2023-02-19T21:06:22.302Z,7.60
2023-02-19T21:09:09.630Z,9.23
2023-02-19T21:11:55.205Z,9.07
2023-02-19T21:14:41.197Z,7.32
2023-02-19T21:17:27.064Z,9.40
2023-02-19T21:20:13.622Z,12.93
2023-02-19T21:22:59.126Z,9.57
2023-02-19T21:25:45.819Z,11.57
2023-02-19T21:28:31.481Z,8.27
2023-02-19T21:31:17.190Z,8.48
2023-02-19T21:34:04.525Z,9.68
2023-02-19T21:36:50.521Z,10.73
2023-02-19T21:39:36.481Z,17.05
2023-02-19T21:42:23.975Z,13.70
2023-02-19T21:45:10.178Z,9.98
2023-02-19T21:47:55.876Z,8.43
2023-02-19T21:50:45.571Z,10.73
2023-02-19T21:53:31.284Z,15.15
2023-02-19T21:56:22.220Z,13.45
2023-02-19T21:59:09.575Z,10.63
2023-02-19T22:01:57.095Z,9.77
2023-02-19T22:04:43.227Z,10.65
2023-02-19T22:07:30.483Z,9.45
2023-02-19T22:10:16.697Z,7.40
2023-02-19T22:13:02.223Z,9.23
2023-02-19T22:15:49.125Z,10.48
2023-02-19T22:18:35.174Z,9.93
2023-02-19T22:21:22.744Z,9.27
2023-02-19T22:24:16.402Z,8.95
2023-02-19T22:27:02.092Z,9.75
2023-02-19T22:29:49.338Z,9.57
2023-02-19T22:32:36.449Z,10.35
2023-02-19T22:35:22.374Z,11.23
2023-02-19T22:38:07.785Z,11.02
2023-02-19T22:40:53.936Z,10.63
2023-02-19T22:43:40.044Z,10.93
2023-02-19T22:46:27.861Z,11.73
2023-02-19T22:49:15.378Z,10.73
2023-02-19T22:52:03.804Z,12.57
2023-02-19T22:54:52.103Z,9.30
2023-02-19T22:57:37.774Z,10.52
2023-02-19T23:00:23.504Z,11.18
2023-02-19T23:03:09.373Z,9.38
2023-02-19T23:05:56.334Z,10.02
2023-02-19T23:08:42.860Z,9.75
2023-02-19T23:11:30.698Z,9.80
2023-02-19T23:14:17.395Z,10.43
2023-02-19T23:17:03.613Z,10.55
2023-02-19T23:19:49.285Z,11.07
2023-02-19T23:22:36.948Z,12.20
2023-02-19T23:25:22.547Z,14.13
2023-02-19T23:28:08.155Z,11.85
2023-02-19T23:30:53.963Z,13.82
2023-02-19T23:33:40.374Z,8.75
2023-02-19T23:36:26.225Z,11.45
2023-02-19T23:39:15.331Z,10.23
2023-02-19T23:42:01.115Z,11.85
2023-02-19T23:44:47.344Z,13.52
2023-02-19T23:47:33.167Z,13.02
2023-02-19T23:50:19.228Z,19.23
2023-02-19T23:53:05.014Z,13.82
2023-02-19T23:55:52.391Z,14.52
2023-02-19T23:58:38.162Z,13.80
